createdAt,value
2023-05-17T00:01:58.344Z,11.10
2023-05-17T00:04:25.158Z,11.10
2023-05-17T00:06:52.021Z,11.10
2023-05-17T00:09:19.201Z,11.10
2023-05-17T00:11:48.480Z,11.10
2023-05-17T00:14:17.487Z,11.10
2023-05-17T00:16:44.300Z,11.00
2023-05-17T00:19:11.279Z,11.00
2023-05-17T00:21:40.645Z,10.90
2023-05-17T00:24:07.423Z,11.00
2023-05-17T00:26:34.228Z,10.90
2023-05-17T00:29:05.813Z,10.90
2023-05-17T00:31:32.660Z,10.90
2023-05-17T00:33:59.403Z,10.90
2023-05-17T00:36:26.247Z,10.90
2023-05-17T00:38:53.050Z,10.90
2023-05-17T00:41:19.922Z,10.90
2023-05-17T00:43:46.770Z,10.90
2023-05-17T00:46:19.049Z,10.90
2023-05-17T00:48:45.918Z,10.90
2023-05-17T00:51:13.321Z,10.90
2023-05-17T00:53:40.357Z,10.80
2023-05-17T00:56:09.726Z,10.70
2023-05-17T00:58:40.646Z,10.70
2023-05-17T01:01:07.483Z,10.70
2023-05-17T01:03:34.578Z,10.60
2023-05-17T01:06:04.432Z,10.60
2023-05-17T01:08:31.261Z,10.60
2023-05-17T01:11:01.158Z,10.70
2023-05-17T01:13:32.309Z,10.70
2023-05-17T01:16:13.425Z,10.60
2023-05-17T01:18:44.672Z,10.60
2023-05-17T01:21:22.858Z,10.50
2023-05-17T01:23:57.796Z,10.50
2023-05-17T01:26:33.703Z,10.50
2023-05-17T01:29:00.858Z,10.50
2023-05-17T01:31:27.945Z,10.50
2023-05-17T01:34:16.904Z,10.50
2023-05-17T01:36:44.899Z,10.50
2023-05-17T01:39:11.753Z,10.40
2023-05-17T01:41:44.571Z,10.40
2023-05-17T01:44:16.047Z,10.50
2023-05-17T01:46:43.448Z,10.40
2023-05-17T01:49:18.326Z,10.40
2023-05-17T01:51:49.364Z,10.30
2023-05-17T01:54:20.507Z,10.30
2023-05-17T01:56:51.088Z,10.40
2023-05-17T01:59:24.138Z,10.40
2023-05-17T02:01:58.680Z,10.40
2023-05-17T02:04:25.581Z,10.40
2023-05-17T02:06:52.819Z,10.30
2023-05-17T02:09:19.687Z,10.30
2023-05-17T02:11:46.476Z,10.30
2023-05-17T02:14:14.227Z,10.30
2023-05-17T02:16:41.167Z,10.40
2023-05-17T02:19:09.180Z,10.30
2023-05-17T02:21:39.546Z,10.30
2023-05-17T02:24:06.954Z,10.30
2023-05-17T02:26:33.731Z,10.30
2023-05-17T02:29:00.508Z,10.30
2023-05-17T02:31:27.340Z,10.30
2023-05-17T02:33:54.519Z,10.30
2023-05-17T02:36:22.978Z,10.30
2023-05-17T02:38:49.760Z,10.30
2023-05-17T02:41:16.617Z,10.30
2023-05-17T02:43:43.613Z,10.20
2023-05-17T02:46:10.579Z,10.20
2023-05-17T02:48:37.687Z,10.30
2023-05-17T02:51:04.654Z,10.30
2023-05-17T02:53:31.550Z,10.30
2023-05-17T02:56:01.113Z,10.30
2023-05-17T02:58:30.275Z,10.30
2023-05-17T03:01:00.051Z,10.30
2023-05-17T03:03:27.009Z,10.30
2023-05-17T03:05:53.990Z,10.30
2023-05-17T03:08:24.490Z,10.30
2023-05-17T03:10:51.501Z,10.30
2023-05-17T03:13:18.330Z,10.30
2023-05-17T03:15:45.805Z,10.30
2023-05-17T03:18:13.918Z,10.30
2023-05-17T03:20:40.999Z,10.30
2023-05-17T03:23:07.964Z,10.30
2023-05-17T03:25:41.416Z,10.30
2023-05-17T03:28:09.337Z,10.30
2023-05-17T03:30:36.604Z,10.30
2023-05-17T03:33:03.600Z,10.30
2023-05-17T03:35:32.946Z,10.30
2023-05-17T03:37:59.771Z,10.30
2023-05-17T03:40:26.592Z,10.30
2023-05-17T03:42:54.191Z,10.30
2023-05-17T03:45:21.353Z,10.30
2023-05-17T03:47:50.828Z,10.30
2023-05-17T03:50:18.828Z,10.30
2023-05-17T03:52:46.311Z,10.40
2023-05-17T03:55:13.435Z,10.40
2023-05-17T03:57:40.336Z,10.40
2023-05-17T04:00:11.882Z,10.40
2023-05-17T04:02:41.593Z,10.30
2023-05-17T04:05:08.918Z,10.30
2023-05-17T04:07:35.901Z,10.30
2023-05-17T04:10:06.098Z,10.30
2023-05-17T04:12:32.957Z,10.30
2023-05-17T04:15:02.317Z,10.30
2023-05-17T04:17:31.993Z,10.30
2023-05-17T04:19:59.190Z,10.40
2023-05-17T04:22:26.067Z,10.40
2023-05-17T04:24:55.194Z,10.40
2023-05-17T04:27:22.037Z,10.40
2023-05-17T04:29:51.826Z,10.40
2023-05-17T04:32:19.068Z,10.40
2023-05-17T04:34:45.926Z,10.40
2023-05-17T04:37:13.031Z,10.30
2023-05-17T04:39:40.869Z,10.30
2023-05-17T04:42:09.197Z,10.30
2023-05-17T04:44:40.019Z,10.20
2023-05-17T04:47:06.862Z,10.20
2023-05-17T04:49:34.545Z,10.10
2023-05-17T04:52:03.520Z,10.20
2023-05-17T04:54:32.309Z,10.20
2023-05-17T04:56:59.245Z,10.10
2023-05-17T04:59:48.585Z,10.20
2023-05-17T05:02:17.946Z,10.20
2023-05-17T05:04:44.996Z,10.30
2023-05-17T05:07:15.737Z,10.30
2023-05-17T05:09:43.160Z,10.40
2023-05-17T05:12:11.349Z,10.40
2023-05-17T05:14:41.652Z,10.40
2023-05-17T05:17:09.050Z,10.40
2023-05-17T05:19:35.993Z,10.40
2023-05-17T05:22:02.874Z,10.40
2023-05-17T05:24:34.664Z,10.40
2023-05-17T05:27:02.804Z,10.60
2023-05-17T05:29:35.327Z,10.50
2023-05-17T05:32:02.755Z,10.60
2023-05-17T05:34:31.771Z,10.60
2023-05-17T05:36:59.917Z,10.60
2023-05-17T05:39:27.876Z,10.70
2023-05-17T05:41:54.968Z,10.60
2023-05-17T05:44:25.913Z,10.60
2023-05-17T05:46:56.442Z,10.70
2023-05-17T05:49:25.253Z,10.70
2023-05-17T05:51:55.047Z,10.80
2023-05-17T05:54:22.477Z,10.80
2023-05-17T05:56:53.760Z,10.90
2023-05-17T05:59:21.114Z,11.00
2023-05-17T06:01:48.454Z,11.00
2023-05-17T06:04:15.419Z,11.00
2023-05-17T06:06:42.357Z,11.00
2023-05-17T06:09:12.229Z,11.10
2023-05-17T06:11:39.761Z,11.10
2023-05-17T06:14:06.655Z,11.20
2023-05-17T06:16:38.309Z,11.10
2023-05-17T06:19:05.278Z,11.10
2023-05-17T06:21:34.479Z,11.10
2023-05-17T06:24:04.148Z,11.20
2023-05-17T06:26:32.015Z,11.20
2023-05-17T06:29:01.306Z,11.30
2023-05-17T06:31:28.117Z,11.30
2023-05-17T06:33:55.002Z,11.30
2023-05-17T06:36:25.400Z,11.30
2023-05-17T06:38:52.403Z,11.30
2023-05-17T06:41:19.451Z,11.40
2023-05-17T06:43:48.781Z,11.50
2023-05-17T06:46:15.576Z,11.50
2023-05-17T06:48:42.597Z,11.60
2023-05-17T06:51:09.524Z,11.60
2023-05-17T06:53:36.457Z,11.60
2023-05-17T06:56:03.339Z,11.70
2023-05-17T06:58:30.171Z,11.70
2023-05-17T07:00:57.430Z,11.70
2023-05-17T07:03:24.309Z,11.70
2023-05-17T07:05:53.567Z,11.60
2023-05-17T07:08:20.868Z,11.60
2023-05-17T07:10:47.659Z,11.60
2023-05-17T07:13:14.507Z,11.60
2023-05-17T07:15:41.431Z,11.60
2023-05-17T07:18:08.387Z,11.70
2023-05-17T07:20:37.734Z,11.80
2023-05-17T07:23:04.594Z,11.70
2023-05-17T07:25:31.708Z,11.70
2023-05-17T07:27:58.710Z,11.80
2023-05-17T07:30:27.945Z,11.90
2023-05-17T07:32:54.916Z,12.00
2023-05-17T07:35:26.270Z,12.10
2023-05-17T07:37:53.312Z,12.20
2023-05-17T07:40:20.452Z,12.30
2023-05-17T07:42:47.425Z,12.30
2023-05-17T07:45:14.515Z,12.40
2023-05-17T07:47:41.585Z,12.40
2023-05-17T07:50:11.284Z,12.40
2023-05-17T07:52:40.400Z,12.50
2023-05-17T07:55:07.792Z,12.50
2023-05-17T07:57:34.820Z,12.60
2023-05-17T08:00:01.783Z,12.80
2023-05-17T08:02:38.978Z,12.90
2023-05-17T08:05:07.259Z,13.00
2023-05-17T08:07:34.279Z,13.10
2023-05-17T08:10:03.870Z,13.20
2023-05-17T08:12:33.995Z,13.20
2023-05-17T08:15:01.110Z,13.20
2023-05-17T08:17:28.057Z,13.40
2023-05-17T08:19:55.107Z,13.50
2023-05-17T08:22:22.043Z,13.60
2023-05-17T08:24:51.410Z,13.70
2023-05-17T08:27:20.714Z,13.90
2023-05-17T08:29:51.733Z,14.10
2023-05-17T08:32:18.800Z,14.50
2023-05-17T08:34:45.909Z,14.80
2023-05-17T08:37:15.058Z,15.30
2023-05-17T08:39:42.198Z,15.90
2023-05-17T08:42:09.226Z,16.80
2023-05-17T08:44:42.044Z,17.50
2023-05-17T08:47:12.359Z,18.40
2023-05-17T08:49:42.908Z,19.30
2023-05-17T08:52:11.147Z,19.30
2023-05-17T08:54:38.231Z,20.10
2023-05-17T08:57:08.616Z,20.50
2023-05-17T08:59:38.245Z,20.90
2023-05-17T09:02:08.834Z,21.50
2023-05-17T09:04:36.236Z,22.00
2023-05-17T09:07:03.183Z,22.30
2023-05-17T09:09:30.260Z,22.80
2023-05-17T09:11:57.395Z,23.00
2023-05-17T09:14:24.366Z,23.30
2023-05-17T09:16:59.879Z,23.40
2023-05-17T09:19:30.445Z,23.50
2023-05-17T09:22:00.328Z,23.70
2023-05-17T09:24:31.007Z,23.90
2023-05-17T09:27:03.444Z,23.90
2023-05-17T09:29:34.101Z,23.30
2023-05-17T09:32:18.349Z,23.60
2023-05-17T09:34:47.078Z,23.70
2023-05-17T09:37:18.716Z,23.80
2023-05-17T09:39:50.885Z,23.90
2023-05-17T09:42:26.387Z,23.80
2023-05-17T09:44:57.894Z,23.30
2023-05-17T09:47:31.179Z,23.10
2023-05-17T09:50:03.516Z,23.10
2023-05-17T09:52:31.900Z,23.00
2023-05-17T09:55:01.372Z,22.90
2023-05-17T09:57:36.935Z,22.70
2023-05-17T10:00:09.713Z,22.40
2023-05-17T10:02:37.928Z,21.60
2023-05-17T10:05:07.971Z,21.10
2023-05-17T10:07:35.054Z,20.40
2023-05-17T10:10:05.292Z,19.50
2023-05-17T10:12:35.991Z,18.70
2023-05-17T10:15:04.824Z,18.20
2023-05-17T10:17:33.490Z,17.70
2023-05-17T10:20:01.098Z,17.40
2023-05-17T10:22:29.140Z,17.10
2023-05-17T10:24:59.165Z,17.10
2023-05-17T10:27:29.357Z,16.80
2023-05-17T10:30:00.182Z,16.60
2023-05-17T10:32:28.839Z,16.50
2023-05-17T10:35:09.168Z,16.30
2023-05-17T10:37:40.123Z,16.30
2023-05-17T10:40:14.095Z,16.20
2023-05-17T10:42:53.534Z,16.20
2023-05-17T10:45:27.594Z,16.10
2023-05-17T10:47:59.023Z,16.00
2023-05-17T10:50:30.732Z,16.00
2023-05-17T10:52:59.046Z,16.10
2023-05-17T10:55:42.444Z,16.00
2023-05-17T10:58:16.038Z,16.00
2023-05-17T11:00:47.076Z,16.40
2023-05-17T11:03:14.044Z,16.30
2023-05-17T11:06:12.911Z,16.20
2023-05-17T11:09:15.123Z,16.20
2023-05-17T11:12:08.835Z,16.10
2023-05-17T11:14:45.171Z,16.00
2023-05-17T11:17:23.768Z,15.90
2023-05-17T11:20:07.379Z,15.80
2023-05-17T11:22:40.211Z,15.80
2023-05-17T11:25:12.522Z,15.70
2023-05-17T11:27:52.765Z,15.80
2023-05-17T11:30:28.750Z,15.80
2023-05-17T11:33:00.592Z,15.90
2023-05-17T11:35:31.251Z,16.00
2023-05-17T11:38:17.097Z,15.90
2023-05-17T11:40:45.334Z,16.00
2023-05-17T11:43:22.915Z,16.20
2023-05-17T11:46:04.222Z,16.40
2023-05-17T11:48:32.124Z,16.80
2023-05-17T11:51:01.916Z,16.80
2023-05-17T11:53:31.715Z,16.80
2023-05-17T11:56:04.549Z,16.60
2023-05-17T11:58:32.550Z,16.60
2023-05-17T12:00:59.483Z,16.60
2023-05-17T12:03:29.776Z,16.60
2023-05-17T12:06:18.096Z,16.60
2023-05-17T12:08:48.781Z,16.60
2023-05-17T12:11:19.206Z,16.50
2023-05-17T12:13:52.029Z,16.40
2023-05-17T12:16:24.025Z,16.40
2023-05-17T12:18:52.180Z,16.30
2023-05-17T12:21:24.038Z,16.30
2023-05-17T12:23:52.235Z,16.30
2023-05-17T12:26:21.762Z,16.30
2023-05-17T12:28:59.853Z,16.30
2023-05-17T12:31:35.645Z,16.30
2023-05-17T12:34:05.281Z,16.30
2023-05-17T12:36:37.245Z,16.40
2023-05-17T12:39:06.416Z,16.50
2023-05-17T12:41:36.570Z,16.50
2023-05-17T12:44:14.444Z,16.50
2023-05-17T12:46:43.804Z,16.60
2023-05-17T12:49:12.221Z,16.60
2023-05-17T12:51:46.402Z,16.60
2023-05-17T12:54:29.556Z,16.60
2023-05-17T12:56:57.430Z,16.60
2023-05-17T12:59:29.297Z,16.60
2023-05-17T13:01:57.994Z,16.60
2023-05-17T13:04:33.156Z,16.60
2023-05-17T13:07:05.068Z,16.60
2023-05-17T13:09:33.480Z,16.70
2023-05-17T13:12:07.122Z,16.70
2023-05-17T13:14:44.499Z,16.70
2023-05-17T13:17:16.742Z,16.70
2023-05-17T13:19:46.316Z,16.80
2023-05-17T13:22:15.864Z,16.90
2023-05-17T13:24:45.499Z,16.90
2023-05-17T13:27:12.929Z,17.00
2023-05-17T13:29:41.732Z,17.00
2023-05-17T13:32:11.417Z,17.10
2023-05-17T13:34:39.204Z,17.10
2023-05-17T13:37:12.090Z,17.10
2023-05-17T13:39:40.471Z,17.20
2023-05-17T13:42:07.447Z,17.30
2023-05-17T13:44:38.408Z,17.50
2023-05-17T13:47:08.142Z,18.10
2023-05-17T13:49:37.281Z,19.40
2023-05-17T13:52:08.422Z,19.90
2023-05-17T13:54:36.628Z,19.30
2023-05-17T13:57:04.065Z,19.40
2023-05-17T13:59:31.032Z,21.70
2023-05-17T14:02:02.357Z,24.80
2023-05-17T14:04:29.294Z,26.90
2023-05-17T14:06:56.402Z,28.80
2023-05-17T14:09:23.372Z,28.50
2023-05-17T14:11:50.352Z,30.40
2023-05-17T14:14:17.266Z,31.80
2023-05-17T14:16:44.142Z,33.00
2023-05-17T14:19:15.851Z,34.00
2023-05-17T14:21:42.978Z,34.70
2023-05-17T14:24:09.972Z,34.70
2023-05-17T14:26:37.186Z,32.50
2023-05-17T14:29:05.726Z,31.30
2023-05-17T14:31:32.722Z,30.50
2023-05-17T14:34:03.767Z,29.00
2023-05-17T14:36:35.633Z,27.70
2023-05-17T14:39:07.670Z,26.90
2023-05-17T14:41:34.658Z,26.20
2023-05-17T14:44:01.616Z,25.40
2023-05-17T14:46:31.121Z,26.60
2023-05-17T14:48:58.316Z,26.90
2023-05-17T14:51:30.097Z,26.90
2023-05-17T14:53:59.216Z,26.60
2023-05-17T14:56:26.298Z,27.50
2023-05-17T14:58:55.554Z,26.50
2023-05-17T15:01:25.063Z,24.80
2023-05-17T15:03:54.336Z,23.70
2023-05-17T15:06:25.576Z,23.10
2023-05-17T15:08:52.776Z,22.20
2023-05-17T15:11:20.111Z,21.40
2023-05-17T15:13:54.650Z,20.60
2023-05-17T15:16:21.950Z,20.00
2023-05-17T15:18:49.153Z,19.50
2023-05-17T15:21:18.840Z,19.00
2023-05-17T15:23:50.757Z,18.80
2023-05-17T15:26:22.306Z,18.70
2023-05-17T15:28:54.028Z,18.50
2023-05-17T15:31:21.183Z,18.30
2023-05-17T15:33:51.188Z,18.30
2023-05-17T15:36:20.293Z,18.20
2023-05-17T15:38:49.702Z,18.20
2023-05-17T15:41:29.547Z,18.00
2023-05-17T15:43:59.172Z,17.90
2023-05-17T15:46:28.440Z,17.70
2023-05-17T15:48:56.561Z,17.70
2023-05-17T15:51:26.025Z,17.70
2023-05-17T15:53:56.291Z,17.60
2023-05-17T15:56:27.156Z,17.50
2023-05-17T15:58:56.361Z,17.40
2023-05-17T16:01:25.506Z,17.40
2023-05-17T16:03:52.491Z,17.40
2023-05-17T16:06:21.963Z,17.40
2023-05-17T16:08:48.964Z,17.50
2023-05-17T16:11:18.270Z,17.60
2023-05-17T16:13:45.121Z,17.50
2023-05-17T16:16:13.397Z,17.50
2023-05-17T16:18:40.297Z,17.50
2023-05-17T16:21:07.870Z,17.50
2023-05-17T16:23:34.820Z,17.40
2023-05-17T16:26:04.325Z,17.40
2023-05-17T16:28:36.948Z,17.30
2023-05-17T16:31:06.725Z,17.30
2023-05-17T16:33:35.372Z,17.30
2023-05-17T16:36:10.380Z,17.40
2023-05-17T16:38:37.387Z,17.30
2023-05-17T16:41:04.547Z,17.30
2023-05-17T16:43:31.678Z,17.20
2023-05-17T16:45:58.645Z,17.00
2023-05-17T16:48:27.915Z,17.00
2023-05-17T16:50:56.102Z,16.90
2023-05-17T16:53:23.146Z,16.80
2023-05-17T16:55:55.000Z,16.80
2023-05-17T16:58:21.904Z,16.90
2023-05-17T17:00:51.051Z,16.80
2023-05-17T17:03:18.059Z,16.80
2023-05-17T17:05:45.181Z,16.80
2023-05-17T17:08:12.116Z,16.80
2023-05-17T17:10:39.127Z,16.70
2023-05-17T17:13:06.041Z,16.70
2023-05-17T17:15:32.965Z,16.70
2023-05-17T17:17:59.917Z,16.70
2023-05-17T17:20:29.207Z,16.70
2023-05-17T17:22:56.823Z,16.60
2023-05-17T17:25:28.353Z,16.60
2023-05-17T17:27:55.343Z,16.50
2023-05-17T17:30:22.236Z,16.50
2023-05-17T17:32:49.253Z,16.50
2023-05-17T17:35:16.217Z,16.40
2023-05-17T17:37:43.128Z,16.40
2023-05-17T17:40:12.970Z,16.30
2023-05-17T17:42:40.018Z,16.30
2023-05-17T17:45:07.383Z,16.20
2023-05-17T17:47:34.356Z,16.20
2023-05-17T17:50:01.293Z,16.10
2023-05-17T17:52:28.229Z,16.10
2023-05-17T17:54:57.229Z,16.00
2023-05-17T17:57:28.739Z,15.90
2023-05-17T17:59:58.702Z,15.80
2023-05-17T18:02:25.719Z,15.70
2023-05-17T18:04:52.645Z,15.60
2023-05-17T18:07:19.685Z,15.60
2023-05-17T18:09:46.647Z,15.50
2023-05-17T18:12:13.622Z,15.50
2023-05-17T18:14:40.884Z,15.50
2023-05-17T18:17:08.225Z,15.50
2023-05-17T18:19:37.371Z,15.40
2023-05-17T18:22:06.631Z,15.40
2023-05-17T18:24:35.800Z,15.40
2023-05-17T18:27:12.829Z,15.30
2023-05-17T18:29:42.709Z,15.30
2023-05-17T18:32:12.509Z,15.30
2023-05-17T18:34:39.388Z,15.20
2023-05-17T18:37:14.057Z,15.20
2023-05-17T18:39:40.855Z,15.20
2023-05-17T18:42:07.726Z,15.10
2023-05-17T18:44:35.242Z,15.00
2023-05-17T18:47:02.145Z,15.00
2023-05-17T18:49:28.967Z,15.00
2023-05-17T18:51:55.747Z,14.90
2023-05-17T18:54:25.079Z,14.80
2023-05-17T18:56:51.975Z,14.80
2023-05-17T18:59:19.137Z,14.80
2023-05-17T19:01:46.029Z,14.80
2023-05-17T19:04:13.959Z,14.80
2023-05-17T19:06:42.248Z,14.80
2023-05-17T19:09:09.145Z,14.80
2023-05-17T19:11:40.552Z,14.70
2023-05-17T19:14:07.369Z,14.70
2023-05-17T19:16:36.345Z,14.60
2023-05-17T19:19:03.330Z,14.60
2023-05-17T19:21:32.616Z,14.50
2023-05-17T19:24:05.624Z,14.50
2023-05-17T19:26:32.491Z,14.50
2023-05-17T19:29:01.632Z,14.40
2023-05-17T19:31:28.448Z,14.40
2023-05-17T19:33:59.286Z,14.40
2023-05-17T19:36:28.212Z,14.40
2023-05-17T19:38:55.111Z,14.40
2023-05-17T19:41:24.266Z,14.40
2023-05-17T19:43:53.350Z,14.40
2023-05-17T19:46:23.778Z,14.30
2023-05-17T19:48:57.288Z,14.30
2023-05-17T19:51:24.131Z,14.30
2023-05-17T19:53:53.684Z,14.30
2023-05-17T19:56:24.938Z,14.30
2023-05-17T19:58:54.356Z,14.30
2023-05-17T20:01:23.729Z,14.20
2023-05-17T20:03:50.882Z,14.20
2023-05-17T20:06:17.788Z,14.20
2023-05-17T20:08:45.243Z,14.10
2023-05-17T20:11:12.131Z,14.10
2023-05-17T20:13:40.449Z,14.10
2023-05-17T20:16:13.206Z,14.10
2023-05-17T20:18:42.709Z,14.00
2023-05-17T20:21:11.331Z,14.00
2023-05-17T20:23:40.597Z,14.00
2023-05-17T20:26:16.022Z,14.00
2023-05-17T20:28:43.579Z,13.90
2023-05-17T20:31:10.471Z,13.90
2023-05-17T20:33:37.374Z,13.90
2023-05-17T20:36:06.581Z,13.80
2023-05-17T20:38:33.521Z,13.80
2023-05-17T20:41:00.693Z,13.80
2023-05-17T20:43:28.920Z,13.80
2023-05-17T20:45:55.800Z,13.80
2023-05-17T20:48:22.649Z,13.80
2023-05-17T20:50:52.043Z,13.80
2023-05-17T20:53:18.953Z,13.80
2023-05-17T20:55:45.718Z,13.80
2023-05-17T20:58:12.565Z,13.80
2023-05-17T21:00:39.356Z,13.80
2023-05-17T21:03:06.591Z,13.80
2023-05-17T21:05:36.076Z,13.80
2023-05-17T21:08:03.089Z,13.70
2023-05-17T21:10:30.212Z,13.70
2023-05-17T21:12:59.654Z,13.70
2023-05-17T21:15:26.465Z,13.70
2023-05-17T21:17:55.876Z,13.60
2023-05-17T21:20:24.570Z,13.60
2023-05-17T21:22:51.751Z,13.60
2023-05-17T21:25:20.857Z,13.60
2023-05-17T21:27:47.708Z,13.50
2023-05-17T21:30:14.765Z,13.50
2023-05-17T21:32:41.737Z,13.40
2023-05-17T21:35:08.741Z,13.40
2023-05-17T21:37:39.798Z,13.30
2023-05-17T21:40:07.312Z,13.40
2023-05-17T21:42:36.446Z,13.40
2023-05-17T21:45:03.449Z,13.30
2023-05-17T21:47:36.019Z,13.30
2023-05-17T21:50:05.384Z,13.20
2023-05-17T21:52:34.818Z,13.20
2023-05-17T21:55:04.046Z,13.20
2023-05-17T21:57:36.215Z,13.10
2023-05-17T22:00:07.914Z,13.10
2023-05-17T22:02:35.907Z,13.10
2023-05-17T22:05:05.164Z,13.10
2023-05-17T22:07:32.097Z,13.10
2023-05-17T22:10:00.230Z,13.10
2023-05-17T22:12:27.190Z,13.00
2023-05-17T22:14:55.900Z,13.10
2023-05-17T22:17:32.222Z,13.00
2023-05-17T22:20:09.470Z,13.00
2023-05-17T22:22:38.750Z,13.00
2023-05-17T22:25:06.768Z,12.90
2023-05-17T22:27:33.582Z,12.90
2023-05-17T22:30:02.952Z,12.90
2023-05-17T22:32:29.857Z,12.90
2023-05-17T22:34:56.600Z,12.90
2023-05-17T22:37:25.699Z,12.90
2023-05-17T22:39:54.830Z,12.90
2023-05-17T22:42:24.177Z,12.80
2023-05-17T22:44:51.300Z,12.80
2023-05-17T22:47:22.699Z,12.80
2023-05-17T22:49:52.436Z,12.80
2023-05-17T22:52:19.777Z,12.80
2023-05-17T22:54:46.658Z,12.80
2023-05-17T22:57:15.855Z,12.80
2023-05-17T22:59:45.094Z,12.70
2023-05-17T23:02:12.358Z,12.60
2023-05-17T23:04:40.228Z,12.60
2023-05-17T23:07:09.763Z,12.60
2023-05-17T23:09:40.431Z,12.60
2023-05-17T23:12:07.700Z,12.50
2023-05-17T23:14:39.782Z,12.50
2023-05-17T23:17:06.517Z,12.50
2023-05-17T23:19:33.659Z,12.60
2023-05-17T23:22:04.224Z,12.50
2023-05-17T23:24:31.501Z,12.50
2023-05-17T23:26:58.706Z,12.50
2023-05-17T23:29:27.818Z,12.50
2023-05-17T23:31:54.591Z,12.40
2023-05-17T23:34:22.082Z,12.40
2023-05-17T23:36:51.896Z,12.40
2023-05-17T23:39:18.749Z,12.40
2023-05-17T23:41:45.521Z,12.30
2023-05-17T23:44:12.454Z,12.30
2023-05-17T23:46:39.344Z,12.30
2023-05-17T23:49:06.253Z,12.30
2023-05-17T23:51:34.676Z,12.30
2023-05-17T23:54:01.733Z,12.20
2023-05-17T23:56:28.595Z,12.20
2023-05-17T23:58:55.449Z,12.20
